Time;durP1;ratioP1;P1;durP2;ratioP2;P2;SDS_P1;SDS_P2;PMS_P1;PMS_P2;Temp;Humidity;BMP_temperature;BMP_pressure;BME280_temperature;BME280_humidity;BME280_pressure;Samples;Min_cycle;Max_cycle;Signal;HPM_P1;HPM_P2
2023/03/22 00:01:18;;;;;;;12.77;8.45;;;6.30;99.50;;;;;;5022152;28;20053;-80
2023/03/22 00:03:45;;;;;;;11.50;8.15;;;6.30;99.90;;;;;;5030129;28;20073;-81
2023/03/22 00:06:11;;;;;;;13.90;10.07;;;6.20;99.70;;;;;;5031402;28;20033;-81
2023/03/22 00:08:38;;;;;;;14.83;10.43;;;6.30;99.80;;;;;;5017472;28;20029;-81
2023/03/22 00:11:04;;;;;;;13.57;9.80;;;6.30;99.80;;;;;;5030423;28;20083;-83
2023/03/22 00:13:31;;;;;;;17.80;9.80;;;6.30;99.90;;;;;;5026576;28;20029;-82
2023/03/22 00:15:58;;;;;;;18.00;9.35;;;6.30;99.90;;;;;;5029841;28;20036;-82
2023/03/22 00:18:29;;;;;;;18.30;10.13;;;6.20;99.90;;;;;;5029287;28;20041;-82
2023/03/22 00:20:57;;;;;;;16.20;8.80;;;6.20;99.90;;;;;;5025538;28;20083;-82
2023/03/22 00:23:24;;;;;;;12.38;8.75;;;6.20;99.90;;;;;;5028849;28;20019;-82
2023/03/22 00:25:50;;;;;;;14.93;9.05;;;6.20;99.90;;;;;;5024438;28;20022;-83
2023/03/22 00:28:17;;;;;;;17.67;10.60;;;6.20;99.90;;;;;;5022412;28;20037;-82
2023/03/22 00:30:53;;;;;;;14.07;9.60;;;6.20;99.90;;;;;;5023643;28;20018;-83
2023/03/22 00:33:19;;;;;;;19.95;10.77;;;6.20;99.90;;;;;;5008793;28;20022;-83
2023/03/22 00:35:59;;;;;;;15.43;8.82;;;6.10;99.90;;;;;;5019715;28;20033;-83
2023/03/22 00:38:35;;;;;;;13.88;9.25;;;6.00;99.90;;;;;;5020104;28;20383;-83
2023/03/22 00:41:16;;;;;;;15.30;10.13;;;6.00;99.90;;;;;;5017501;28;20022;-82
2023/03/22 00:43:42;;;;;;;18.90;10.10;;;6.00;99.90;;;;;;5021892;28;20031;-82
2023/03/22 00:46:10;;;;;;;15.75;10.73;;;6.00;99.90;;;;;;5021008;28;20047;-83
2023/03/22 00:48:36;;;;;;;15.40;9.65;;;6.10;99.90;;;;;;5030536;28;20324;-81
2023/03/22 00:51:02;;;;;;;13.60;9.88;;;6.10;99.90;;;;;;5028577;28;20487;-82
2023/03/22 00:53:28;;;;;;;15.38;9.65;;;6.10;99.90;;;;;;5017115;28;20068;-83
2023/03/22 00:55:57;;;;;;;12.05;9.20;;;6.00;99.90;;;;;;5029786;28;20018;-81
2023/03/22 00:58:23;;;;;;;12.88;8.85;;;6.00;99.90;;;;;;5023515;28;20160;-81
2023/03/22 01:00:49;;;;;;;14.70;9.60;;;5.90;99.90;;;;;;5030654;28;20084;-81
2023/03/22 01:03:16;;;;;;;15.07;9.35;;;5.90;99.90;;;;;;5030915;28;20126;-82
2023/03/22 01:05:45;;;;;;;13.85;9.15;;;6.00;99.90;;;;;;5031578;28;20379;-82
2023/03/22 01:08:11;;;;;;;13.85;8.60;;;6.00;99.90;;;;;;5023871;28;20033;-82
2023/03/22 01:10:38;;;;;;;15.57;10.35;;;6.00;99.90;;;;;;5039027;28;20020;-81
2023/03/22 01:13:08;;;;;;;11.52;8.00;;;6.00;99.90;;;;;;5035323;28;20069;-83
2023/03/22 01:15:34;;;;;;;15.27;8.20;;;6.00;99.90;;;;;;5030805;28;20072;-81
2023/03/22 01:18:00;;;;;;;12.93;8.63;;;6.00;99.90;;;;;;5019877;28;20030;-80
2023/03/22 01:20:26;;;;;;;13.98;8.75;;;6.00;99.90;;;;;;5025423;28;20399;-83
2023/03/22 01:22:52;;;;;;;14.52;9.32;;;6.00;99.90;;;;;;5016797;28;20480;-81
2023/03/22 01:25:21;;;;;;;13.27;9.40;;;6.10;99.90;;;;;;5013957;28;20034;-81
2023/03/22 01:27:46;;;;;;;14.98;9.10;;;6.10;99.90;;;;;;5022154;28;20018;-81
2023/03/22 01:30:13;;;;;;;16.00;9.20;;;6.00;99.90;;;;;;5013809;28;20049;-80
2023/03/22 01:32:39;;;;;;;15.13;9.30;;;6.00;99.90;;;;;;5027916;28;20052;-82
2023/03/22 01:35:05;;;;;;;13.15;8.50;;;6.00;99.90;;;;;;5033006;28;20085;-82
2023/03/22 01:37:32;;;;;;;12.95;9.32;;;6.00;99.90;;;;;;5041776;28;20018;-81
2023/03/22 01:39:58;;;;;;;15.18;9.05;;;6.00;99.90;;;;;;5043123;28;20041;-81
2023/03/22 01:42:25;;;;;;;18.13;10.38;;;6.00;99.90;;;;;;5030862;28;20025;-81
2023/03/22 01:45:12;;;;;;;12.90;10.47;;;5.90;99.90;;;;;;5023378;28;20073;-80
2023/03/22 01:48:09;;;;;;;21.23;11.30;;;5.90;99.90;;;;;;5032299;28;20280;-80
2023/03/22 01:50:37;;;;;;;16.20;9.95;;;5.90;99.90;;;;;;5016755;28;20044;-80
2023/03/22 01:53:05;;;;;;;13.85;9.40;;;5.90;99.90;;;;;;5028047;28;20559;-81
2023/03/22 01:55:32;;;;;;;16.10;9.40;;;5.90;99.90;;;;;;5031893;28;20017;-80
2023/03/22 01:58:00;;;;;;;15.25;9.65;;;5.80;99.90;;;;;;5027667;28;20029;-80
2023/03/22 02:00:26;;;;;;;15.18;8.73;;;5.80;99.90;;;;;;5033027;28;20033;-81
2023/03/22 02:02:52;;;;;;;17.30;10.40;;;5.80;99.90;;;;;;5029053;28;20353;-81
2023/03/22 02:05:21;;;;;;;16.20;10.55;;;5.80;99.90;;;;;;5031613;28;20017;-82
2023/03/22 02:07:48;;;;;;;16.38;10.65;;;5.90;99.90;;;;;;5027057;28;20106;-79
2023/03/22 02:10:18;;;;;;;;;;;5.80;99.90;;;;;;5033455;28;20037;-81
2023/03/22 02:12:59;;;;;;;11.20;8.70;;;5.90;99.90;;;;;;5031593;28;20211;-81
2023/03/22 02:15:32;;;;;;;11.75;9.43;;;5.80;99.90;;;;;;5026974;28;20025;-80
2023/03/22 02:18:15;;;;;;;14.82;9.82;;;5.70;99.90;;;;;;5026258;28;20022;-82
2023/03/22 02:21:12;;;;;;;16.48;9.90;;;5.70;99.90;;;;;;5023106;28;20022;-80
2023/03/22 02:24:15;;;;;;;15.52;9.70;;;5.70;99.90;;;;;;5019042;28;20033;-81
2023/03/22 02:27:14;;;;;;;16.15;9.93;;;5.60;99.90;;;;;;5001443;28;20068;-81
2023/03/22 02:29:45;;;;;;;13.88;8.90;;;5.70;99.90;;;;;;5016096;28;20025;-81
2023/03/22 02:32:32;;;;;;;17.42;10.82;;;5.70;99.90;;;;;;5020438;28;20030;-81
2023/03/22 02:35:18;;;;;;;;;;;5.70;99.90;;;;;;5027046;28;20442;-81
2023/03/22 02:38:02;;;;;;;13.23;8.88;;;5.70;99.90;;;;;;5021879;28;19916;-82
2023/03/22 02:40:43;;;;;;;15.90;7.75;;;5.70;99.90;;;;;;5024726;28;20573;-82
2023/03/22 02:43:45;;;;;;;15.15;9.32;;;5.80;99.90;;;;;;5027842;28;20013;-81
2023/03/22 02:46:34;;;;;;;14.85;9.23;;;5.80;99.90;;;;;;5018621;28;20022;-81
2023/03/22 02:49:08;;;;;;;14.27;7.93;;;5.80;99.90;;;;;;5031162;28;20033;-82
2023/03/22 02:51:59;;;;;;;17.05;10.55;;;5.80;99.90;;;;;;5028057;28;20804;-81
2023/03/22 02:54:41;;;;;;;13.48;8.75;;;5.80;99.90;;;;;;5028751;28;20051;-80
2023/03/22 02:57:14;;;;;;;15.75;9.25;;;5.80;99.90;;;;;;5008832;28;20038;-81
2023/03/22 02:59:42;;;;;;;14.93;8.68;;;5.80;99.90;;;;;;5033545;28;20060;-82
2023/03/22 03:02:13;;;;;;;12.50;7.57;;;5.80;99.90;;;;;;5028282;28;20130;-81
2023/03/22 03:04:45;;;;;;;13.27;8.23;;;5.80;99.90;;;;;;5024821;28;20097;-81
2023/03/22 03:07:16;;;;;;;12.52;7.53;;;5.80;99.90;;;;;;5026320;28;20041;-81
2023/03/22 03:09:43;;;;;;;11.48;8.27;;;5.80;99.90;;;;;;5020633;28;20026;-82
2023/03/22 03:12:22;;;;;;;14.95;8.35;;;5.80;99.90;;;;;;5026028;28;20072;-81
2023/03/22 03:14:48;;;;;;;13.48;8.40;;;5.80;99.90;;;;;;5021140;28;20029;-82
2023/03/22 03:17:29;;;;;;;12.15;8.43;;;5.60;99.90;;;;;;5024780;28;20026;-81
2023/03/22 03:19:55;;;;;;;10.50;7.68;;;5.50;99.90;;;;;;5007598;28;20109;-81
2023/03/22 03:22:46;;;;;;;11.77;7.82;;;5.40;99.90;;;;;;5026873;28;20084;-82
2023/03/22 03:25:28;;;;;;;11.95;8.18;;;5.30;99.90;;;;;;5020085;28;20022;-82
2023/03/22 03:28:36;;;;;;;13.85;8.15;;;5.20;99.90;;;;;;5021827;28;20034;-82
2023/03/22 03:31:16;;;;;;;13.63;7.72;;;5.20;99.90;;;;;;4986160;28;20034;-82
2023/03/22 03:34:23;;;;;;;11.20;6.72;;;5.20;99.90;;;;;;5032163;28;20379;-82
2023/03/22 03:37:13;;;;;;;13.68;8.23;;;5.10;99.90;;;;;;5010612;28;20025;-80
2023/03/22 03:39:50;;;;;;;7.97;5.80;;;5.10;99.90;;;;;;5022798;28;20065;-81
2023/03/22 03:42:17;;;;;;;;;;;5.10;99.90;;;;;;5031727;28;20018;-81
2023/03/22 03:44:43;;;;;;;11.97;8.23;;;5.10;99.90;;;;;;5025056;28;20003;-82
2023/03/22 03:47:10;;;;;;;11.73;7.40;;;5.10;99.90;;;;;;5021977;28;20343;-81
2023/03/22 03:49:37;;;;;;;12.85;7.03;;;5.10;99.90;;;;;;5024030;28;20010;-83
2023/03/22 03:52:04;;;;;;;10.25;6.35;;;5.10;99.90;;;;;;5028798;28;20092;-82
2023/03/22 03:54:30;;;;;;;8.63;6.97;;;5.20;99.90;;;;;;5028528;28;20387;-82
2023/03/22 03:56:56;;;;;;;15.85;7.28;;;5.10;99.90;;;;;;5015264;28;20026;-82
2023/03/22 03:59:22;;;;;;;10.00;7.32;;;5.10;99.90;;;;;;5024268;28;20030;-83
2023/03/22 04:01:49;;;;;;;10.48;6.82;;;5.20;99.90;;;;;;5024913;28;20038;-85
2023/03/22 04:04:27;;;;;;;9.50;6.53;;;5.20;99.90;;;;;;5022733;28;20037;-83
2023/03/22 04:07:00;;;;;;;10.90;6.90;;;5.20;99.90;;;;;;5010583;28;20034;-81
2023/03/22 04:09:29;;;;;;;9.63;6.35;;;5.20;99.90;;;;;;5022804;28;20097;-81
2023/03/22 04:11:56;;;;;;;11.45;7.32;;;5.20;99.90;;;;;;5029616;28;20032;-81
2023/03/22 04:14:23;;;;;;;8.52;5.95;;;5.20;99.90;;;;;;5035050;28;20076;-81
2023/03/22 04:16:49;;;;;;;8.97;6.07;;;5.20;99.90;;;;;;5042281;28;20132;-81
2023/03/22 04:19:15;;;;;;;12.15;7.30;;;5.20;99.90;;;;;;5039962;28;20414;-84
2023/03/22 04:21:41;;;;;;;12.52;7.40;;;5.20;99.90;;;;;;5018860;28;20076;-84
2023/03/22 04:24:08;;;;;;;14.52;8.10;;;5.10;99.90;;;;;;5026620;28;20544;-83
2023/03/22 04:26:34;;;;;;;11.43;7.80;;;5.10;99.90;;;;;;5023981;28;20025;-81
2023/03/22 04:29:01;;;;;;;8.98;6.78;;;5.20;99.90;;;;;;5022271;28;20037;-81
2023/03/22 04:31:31;;;;;;;10.32;6.68;;;5.20;99.90;;;;;;5019292;28;20025;-83
2023/03/22 04:34:04;;;;;;;8.30;6.72;;;5.20;99.90;;;;;;5032587;28;20025;-81
2023/03/22 04:36:35;;;;;;;8.73;5.63;;;5.20;99.90;;;;;;5032408;28;20481;-81
2023/03/22 04:39:04;;;;;;;8.60;6.47;;;5.20;99.90;;;;;;5026188;28;20065;-82
2023/03/22 04:41:31;;;;;;;8.52;6.18;;;5.20;99.90;;;;;;5028752;28;20041;-82
2023/03/22 04:44:01;;;;;;;8.02;6.22;;;5.20;99.90;;;;;;5027901;28;20548;-80
2023/03/22 04:46:28;;;;;;;8.30;5.85;;;5.10;99.90;;;;;;5025912;28;20068;-81
2023/03/22 04:48:54;;;;;;;8.57;6.63;;;5.10;99.90;;;;;;5029184;28;20018;-80
2023/03/22 04:51:20;;;;;;;10.93;8.02;;;5.10;99.90;;;;;;5019749;28;20598;-81
2023/03/22 04:53:46;;;;;;;12.30;8.13;;;5.10;99.90;;;;;;5027513;28;20411;-81
2023/03/22 04:56:13;;;;;;;10.73;9.13;;;5.20;99.90;;;;;;5023172;28;20029;-80
2023/03/22 04:58:41;;;;;;;11.88;9.00;;;5.20;99.90;;;;;;5026312;28;20030;-80
2023/03/22 05:01:11;;;;;;;13.95;10.50;;;5.10;99.90;;;;;;5015214;28;20069;-81
2023/03/22 05:03:38;;;;;;;14.25;10.88;;;5.10;99.90;;;;;;5016605;28;20048;-80
2023/03/22 05:06:06;;;;;;;12.38;10.13;;;5.10;99.90;;;;;;5026524;28;20025;-80
2023/03/22 05:08:33;;;;;;;13.82;11.15;;;5.10;99.90;;;;;;5017596;28;20379;-80
2023/03/22 05:11:05;;;;;;;11.55;9.85;;;5.10;99.90;;;;;;5027699;28;20033;-81
2023/03/22 05:13:31;;;;;;;11.07;9.27;;;5.20;99.90;;;;;;5019754;28;20022;-80
2023/03/22 05:15:58;;;;;;;10.75;9.35;;;5.20;99.90;;;;;;5030702;28;20025;-81
2023/03/22 05:18:25;;;;;;;12.05;10.05;;;5.20;99.90;;;;;;5024217;28;20530;-81
2023/03/22 05:20:54;;;;;;;11.07;9.43;;;5.20;99.90;;;;;;5015606;28;20552;-82
2023/03/22 05:23:21;;;;;;;12.20;9.68;;;5.20;99.90;;;;;;5030494;28;20097;-81
2023/03/22 05:25:47;;;;;;;11.55;10.20;;;5.20;99.90;;;;;;5029992;28;20480;-80
2023/03/22 05:28:14;;;;;;;10.15;9.13;;;5.20;99.90;;;;;;5020503;28;20029;-82
2023/03/22 05:30:42;;;;;;;11.20;8.60;;;5.30;99.90;;;;;;5016195;28;20029;-81
2023/03/22 05:33:09;;;;;;;10.27;9.05;;;5.30;99.90;;;;;;5021438;28;20301;-82
2023/03/22 05:35:37;;;;;;;11.30;7.10;;;5.30;99.90;;;;;;5032243;28;20041;-83
2023/03/22 05:38:04;;;;;;;8.73;7.10;;;5.40;99.90;;;;;;5019777;28;20022;-83
2023/03/22 05:40:30;;;;;;;7.40;6.63;;;5.40;99.90;;;;;;5033116;28;20041;-82
2023/03/22 05:42:56;;;;;;;10.38;7.68;;;5.30;99.90;;;;;;5020959;28;20029;-82
2023/03/22 05:45:22;;;;;;;8.73;7.82;;;5.30;99.90;;;;;;5033827;28;20025;-81
2023/03/22 05:47:49;;;;;;;8.43;6.72;;;5.30;99.90;;;;;;5028583;28;20046;-82
2023/03/22 05:50:18;;;;;;;8.25;6.47;;;5.30;99.60;;;;;;5025866;28;20108;-83
2023/03/22 05:52:45;;;;;;;7.95;6.85;;;5.30;99.60;;;;;;5030349;28;20029;-82
2023/03/22 05:55:12;;;;;;;7.78;6.78;;;5.30;99.50;;;;;;5029357;28;20027;-84
2023/03/22 05:57:39;;;;;;;8.70;7.80;;;5.30;99.50;;;;;;5019251;28;20025;-83
2023/03/22 06:00:12;;;;;;;8.65;6.88;;;5.20;99.00;;;;;;5022586;28;20038;-84
2023/03/22 06:02:39;;;;;;;8.40;6.65;;;5.20;99.00;;;;;;5030523;28;20042;-82
2023/03/22 06:05:06;;;;;;;6.85;5.72;;;5.20;99.00;;;;;;5032081;28;20033;-82
2023/03/22 06:07:32;;;;;;;6.65;5.30;;;5.20;99.00;;;;;;5029104;28;20021;-83
2023/03/22 06:09:58;;;;;;;8.30;6.63;;;5.10;98.80;;;;;;5023923;28;20029;-82
2023/03/22 06:12:24;;;;;;;7.00;6.00;;;5.00;98.70;;;;;;5031425;28;20064;-82
2023/03/22 06:14:51;;;;;;;6.82;5.63;;;5.00;98.90;;;;;;5027777;28;20084;-82
2023/03/22 06:17:18;;;;;;;4.90;4.00;;;5.00;99.10;;;;;;5032173;28;20136;-83
2023/03/22 06:19:44;;;;;;;8.43;5.03;;;5.10;99.00;;;;;;5034395;28;20029;-82
2023/03/22 06:22:10;;;;;;;5.88;5.13;;;5.10;98.70;;;;;;5020914;28;20037;-82
2023/03/22 06:24:39;;;;;;;4.72;4.10;;;5.10;98.60;;;;;;5010572;28;20049;-81
2023/03/22 06:27:05;;;;;;;6.07;4.22;;;5.20;98.50;;;;;;5018015;28;20018;-82
2023/03/22 06:29:32;;;;;;;4.57;4.18;;;5.20;98.00;;;;;;5015508;28;20018;-82
2023/03/22 06:31:58;;;;;;;5.25;4.57;;;5.30;97.70;;;;;;5015215;28;20013;-84
2023/03/22 06:34:25;;;;;;;4.80;4.10;;;5.30;97.50;;;;;;5003112;28;20030;-82
2023/03/22 06:36:52;;;;;;;4.45;3.85;;;5.30;97.20;;;;;;5020773;28;20113;-83
2023/03/22 06:39:18;;;;;;;3.17;2.60;;;5.30;96.80;;;;;;5034943;28;20064;-86
2023/03/22 06:41:46;;;;;;;5.18;1.98;;;5.30;96.50;;;;;;5018737;28;20072;-87
2023/03/22 06:44:12;;;;;;;3.58;1.90;;;5.30;96.10;;;;;;5033348;28;20036;-82
2023/03/22 06:46:38;;;;;;;2.65;1.83;;;5.50;95.90;;;;;;5026105;28;20112;-82
2023/03/22 06:49:04;;;;;;;3.85;2.17;;;5.70;95.10;;;;;;5014074;28;20454;-83
2023/03/22 06:51:30;;;;;;;2.67;2.17;;;6.00;94.80;;;;;;5024954;28;20092;-81
2023/03/22 06:53:57;;;;;;;3.15;2.30;;;6.30;94.20;;;;;;5029330;28;20056;-84
2023/03/22 06:56:23;;;;;;;2.63;2.20;;;6.50;93.30;;;;;;5035603;28;20022;-82
2023/03/22 06:58:50;;;;;;;2.30;2.10;;;6.60;92.40;;;;;;5033753;28;20769;-81
2023/03/22 07:01:17;;;;;;;4.82;2.55;;;6.90;92.40;;;;;;5023071;28;20018;-83
2023/03/22 07:03:44;;;;;;;4.97;3.00;;;7.10;91.30;;;;;;5026685;28;20090;-82
2023/03/22 07:06:10;;;;;;;5.70;2.67;;;7.20;91.00;;;;;;5022220;28;20038;-83
2023/03/22 07:08:36;;;;;;;7.65;2.90;;;7.30;90.70;;;;;;5022755;28;20010;-81
2023/03/22 07:11:03;;;;;;;4.57;2.95;;;7.50;90.30;;;;;;5016938;28;20349;-81
2023/03/22 07:13:29;;;;;;;4.70;2.42;;;7.60;89.90;;;;;;5020634;28;20022;-82
2023/03/22 07:15:59;;;;;;;7.07;2.75;;;7.70;89.30;;;;;;5019354;28;20033;-82
2023/03/22 07:18:25;;;;;;;3.38;2.80;;;7.90;88.60;;;;;;5020693;28;20112;-82
2023/03/22 07:20:51;;;;;;;2.50;2.30;;;8.10;86.70;;;;;;5021933;28;20026;-81
2023/03/22 07:23:18;;;;;;;4.35;3.10;;;8.20;86.10;;;;;;5024397;28;20040;-83
2023/03/22 07:25:47;;;;;;;3.13;2.83;;;8.30;86.30;;;;;;5031305;28;20359;-81
2023/03/22 07:28:14;;;;;;;6.43;3.45;;;8.30;85.20;;;;;;5019821;28;20026;-81
2023/03/22 07:30:40;;;;;;;2.92;2.25;;;9.30;85.30;;;;;;5017707;28;20026;-80
2023/03/22 07:33:07;;;;;;;3.80;2.85;;;11.00;81.20;;;;;;5031349;28;20022;-84
2023/03/22 07:35:35;;;;;;;5.95;2.90;;;11.60;73.90;;;;;;5016758;28;20483;-85
2023/03/22 07:38:01;;;;;;;;;;;12.00;74.70;;;;;;5015256;28;20101;-83
2023/03/22 07:40:28;;;;;;;4.43;2.97;;;11.90;72.60;;;;;;5015933;28;19913;-82
2023/03/22 07:42:54;;;;;;;6.63;3.03;;;11.30;70.50;;;;;;5020625;28;20057;-80
2023/03/22 07:45:21;;;;;;;3.40;2.92;;;10.70;72.10;;;;;;5019542;28;20030;-85
2023/03/22 07:47:47;;;;;;;4.10;3.15;;;10.20;72.20;;;;;;5036512;28;20509;-81
2023/03/22 07:50:14;;;;;;;9.57;3.30;;;9.90;73.70;;;;;;5018198;28;20022;-82
2023/03/22 07:52:40;;;;;;;5.60;3.45;;;9.60;74.70;;;;;;5023619;28;20026;-81
2023/03/22 07:55:09;;;;;;;5.45;3.25;;;9.40;75.30;;;;;;5019546;28;20030;-82
2023/03/22 07:57:35;;;;;;;4.22;2.83;;;9.20;75.80;;;;;;5017660;28;20022;-82
2023/03/22 08:00:04;;;;;;;5.43;3.37;;;8.90;77.00;;;;;;5020187;28;20030;-83
2023/03/22 08:02:30;;;;;;;3.70;3.40;;;8.70;77.60;;;;;;5017105;28;20279;-83
2023/03/22 08:04:56;;;;;;;8.32;3.65;;;8.50;77.60;;;;;;5016627;28;20124;-83
2023/03/22 08:07:26;;;;;;;6.82;3.67;;;8.40;78.30;;;;;;5015737;28;20026;-82
2023/03/22 08:09:51;;;;;;;4.75;3.35;;;8.40;78.60;;;;;;5015164;28;20512;-82
2023/03/22 08:12:18;;;;;;;7.03;3.35;;;8.50;79.20;;;;;;5016301;28;20026;-83
2023/03/22 08:14:49;;;;;;;3.88;2.78;;;8.60;79.00;;;;;;5014654;28;20079;-83
2023/03/22 08:17:17;;;;;;;8.00;3.50;;;8.60;78.50;;;;;;5014242;28;20078;-81
2023/03/22 08:19:44;;;;;;;4.65;2.67;;;8.70;79.30;;;;;;5015174;28;20360;-82
2023/03/22 08:22:10;;;;;;;7.82;2.05;;;8.70;78.40;;;;;;5013160;28;20033;-82
2023/03/22 08:24:37;;;;;;;5.10;2.40;;;8.90;78.00;;;;;;5014537;28;20025;-83
2023/03/22 08:27:04;;;;;;;2.70;2.45;;;9.10;76.70;;;;;;5013192;28;20279;-82
2023/03/22 08:29:30;;;;;;;7.15;2.78;;;9.20;76.90;;;;;;5014313;28;20035;-81
2023/03/22 08:32:00;;;;;;;3.97;2.15;;;9.50;75.30;;;;;;5014276;28;20058;-80
2023/03/22 08:34:27;;;;;;;7.18;2.67;;;9.40;74.60;;;;;;5015387;28;20026;-82
2023/03/22 08:36:53;;;;;;;5.53;2.13;;;9.30;74.70;;;;;;5015237;28;20018;-83
2023/03/22 08:39:20;;;;;;;3.08;1.85;;;9.60;75.20;;;;;;5031515;28;20057;-82
2023/03/22 08:41:46;;;;;;;3.75;2.55;;;9.70;74.00;;;;;;5014714;28;20093;-82
2023/03/22 08:44:11;;;;;;;3.40;2.42;;;10.00;73.30;;;;;;5014723;28;20084;-81
2023/03/22 08:46:37;;;;;;;2.78;2.28;;;10.00;72.70;;;;;;5017488;28;20106;-83
2023/03/22 08:49:03;;;;;;;5.57;2.60;;;10.20;73.30;;;;;;5017181;28;20026;-82
2023/03/22 08:51:30;;;;;;;4.15;2.28;;;10.40;71.70;;;;;;5018163;28;20022;-82
2023/03/22 08:53:59;;;;;;;5.23;1.73;;;10.30;72.00;;;;;;5018590;28;20026;-82
2023/03/22 08:56:26;;;;;;;6.63;2.80;;;10.30;71.60;;;;;;5017954;28;20022;-82
2023/03/22 08:58:52;;;;;;;3.13;2.28;;;10.20;72.50;;;;;;5034490;28;20034;-83
2023/03/22 09:01:21;;;;;;;2.85;1.88;;;10.40;71.20;;;;;;5017394;28;20110;-83
2023/03/22 09:03:47;;;;;;;3.63;2.13;;;10.00;71.40;;;;;;5018832;28;20053;-82
2023/03/22 09:06:14;;;;;;;2.45;2.05;;;10.00;71.80;;;;;;5020481;28;20018;-82
2023/03/22 09:08:40;;;;;;;2.60;1.70;;;9.80;71.50;;;;;;5021410;28;20025;-84
2023/03/22 09:11:11;;;;;;;3.33;2.38;;;10.00;72.80;;;;;;5033128;28;20614;-82
2023/03/22 09:13:37;;;;;;;5.32;2.47;;;10.50;70.80;;;;;;5033041;28;20032;-81
2023/03/22 09:16:05;;;;;;;4.45;2.38;;;10.70;70.50;;;;;;5018286;28;20051;-83
2023/03/22 09:18:31;;;;;;;4.20;2.75;;;10.60;69.20;;;;;;5016801;28;20038;-81
2023/03/22 09:20:57;;;;;;;4.80;2.85;;;10.70;69.50;;;;;;5018292;28;20076;-82
2023/03/22 09:23:23;;;;;;;2.88;2.53;;;11.30;69.70;;;;;;5019140;28;20029;-82
2023/03/22 09:25:48;;;;;;;6.47;2.58;;;12.00;67.20;;;;;;5022422;28;20029;-82
2023/03/22 09:28:15;;;;;;;5.30;2.17;;;13.00;65.70;;;;;;5041997;28;20033;-81
2023/03/22 09:30:43;;;;;;;4.88;1.95;;;14.00;62.20;;;;;;5026036;28;20028;-84
2023/03/22 09:33:10;;;;;;;2.05;1.80;;;13.80;60.40;;;;;;5022333;28;20046;-83
2023/03/22 09:35:40;;;;;;;2.33;1.90;;;13.40;59.60;;;;;;5017573;28;20030;-81
2023/03/22 09:38:06;;;;;;;5.95;1.80;;;12.80;60.70;;;;;;5036918;28;20030;-83
2023/03/22 09:40:34;;;;;;;2.55;1.70;;;12.90;61.60;;;;;;5009501;28;20034;-81
2023/03/22 09:43:06;;;;;;;3.03;2.17;;;14.20;59.70;;;;;;5017796;28;20029;-81
2023/03/22 09:45:42;;;;;;;2.28;2.00;;;14.70;56.90;;;;;;5018530;28;20022;-80
2023/03/22 09:48:20;;;;;;;2.63;2.05;;;14.90;55.90;;;;;;5017452;28;20033;-83
2023/03/22 09:50:50;;;;;;;2.25;1.92;;;14.90;55.70;;;;;;5014122;28;20030;-83
2023/03/22 09:53:17;;;;;;;2.40;1.83;;;15.10;55.30;;;;;;5018820;28;20036;-82
2023/03/22 09:56:08;;;;;;;3.33;1.83;;;15.40;54.00;;;;;;5019029;28;20034;-82
2023/03/22 09:58:56;;;;;;;6.32;2.28;;;14.70;54.00;;;;;;5018004;28;20108;-82
2023/03/22 10:01:52;;;;;;;3.35;2.97;;;13.50;56.10;;;;;;5018015;28;20359;-84
2023/03/22 10:04:43;;;;;;;3.25;2.35;;;12.50;58.80;;;;;;5019138;28;20061;-82
2023/03/22 10:07:33;;;;;;;4.13;3.08;;;11.70;60.70;;;;;;5016136;28;20046;-83
2023/03/22 10:10:19;;;;;;;6.32;3.53;;;11.00;62.20;;;;;;5032245;28;20068;-81
2023/03/22 10:12:56;;;;;;;7.28;4.80;;;10.60;63.90;;;;;;5016958;28;20387;-82
2023/03/22 10:15:42;;;;;;;4.30;2.30;;;10.30;64.80;;;;;;5019172;28;20026;-82
2023/03/22 10:18:15;;;;;;;21.58;16.55;;;9.90;65.60;;;;;;5026105;28;20392;-81
2023/03/22 10:20:41;;;;;;;5.95;4.57;;;9.60;67.10;;;;;;5028422;28;20030;-83
2023/03/22 10:23:15;;;;;;;7.25;2.50;;;9.30;68.30;;;;;;5014097;28;20123;-84
2023/03/22 10:25:42;;;;;;;9.60;6.40;;;9.00;68.90;;;;;;5018617;28;20555;-83
2023/03/22 10:28:22;;;;;;;5.90;4.05;;;8.90;69.50;;;;;;5017266;28;20025;-83
2023/03/22 10:30:58;;;;;;;6.95;5.30;;;8.90;69.80;;;;;;5016618;28;20105;-82
2023/03/22 10:33:36;;;;;;;5.35;3.90;;;8.80;70.40;;;;;;5016636;28;20077;-83
2023/03/22 10:36:05;;;;;;;10.65;3.75;;;8.60;70.80;;;;;;5015858;28;20026;-81
2023/03/22 10:38:33;;;;;;;4.30;2.22;;;8.70;71.60;;;;;;5016739;28;20014;-82
2023/03/22 10:41:01;;;;;;;2.85;1.80;;;9.10;71.10;;;;;;5017350;28;20026;-81
2023/03/22 10:43:35;;;;;;;;;;;9.70;70.20;;;;;;5021791;28;20026;-81
2023/03/22 10:46:04;;;;;;;3.80;2.03;;;10.20;69.80;;;;;;5016122;28;19912;-81
2023/03/22 10:48:42;;;;;;;3.55;2.38;;;10.70;68.10;;;;;;5023322;28;20083;-83
2023/03/22 10:51:24;;;;;;;3.70;2.88;;;11.20;66.80;;;;;;5039888;28;20029;-82
2023/03/22 10:53:52;;;;;;;2.33;1.27;;;11.50;64.90;;;;;;5025222;28;20053;-84
2023/03/22 10:56:20;;;;;;;6.75;3.65;;;11.60;63.80;;;;;;5022807;28;20385;-83
2023/03/22 10:58:48;;;;;;;4.15;2.88;;;11.50;63.30;;;;;;5017872;28;20037;-81
2023/03/22 11:01:24;;;;;;;4.20;2.80;;;11.20;63.40;;;;;;5022290;28;20391;-80
2023/03/22 11:03:53;;;;;;;8.25;4.78;;;10.80;64.20;;;;;;5015566;28;20053;-82
2023/03/22 11:06:26;;;;;;;6.93;4.50;;;10.40;65.60;;;;;;5008281;28;20448;-83
2023/03/22 11:09:14;;;;;;;4.75;3.20;;;10.20;66.50;;;;;;5034517;28;20066;-82
2023/03/22 11:11:59;;;;;;;4.13;2.53;;;9.90;67.10;;;;;;5016378;28;20094;-82
2023/03/22 11:14:41;;;;;;;4.57;2.67;;;9.70;67.20;;;;;;5015006;28;20038;-83
2023/03/22 11:17:15;;;;;;;4.95;2.80;;;9.50;67.90;;;;;;5015217;28;20018;-82
2023/03/22 11:19:51;;;;;;;2.50;2.03;;;9.50;68.30;;;;;;5015841;28;20030;-83
2023/03/22 11:22:39;;;;;;;5.43;2.78;;;9.60;68.70;;;;;;5022342;28;20020;-82
2023/03/22 11:25:19;;;;;;;3.80;2.17;;;9.70;68.80;;;;;;5032525;28;20022;-81
2023/03/22 11:28:08;;;;;;;5.35;3.05;;;9.70;68.50;;;;;;5020858;28;20045;-81
2023/03/22 11:30:35;;;;;;;8.85;2.97;;;9.60;68.90;;;;;;5005714;28;20120;-80
2023/03/22 11:33:07;;;;;;;7.03;3.88;;;9.60;69.30;;;;;;5029544;28;20025;-82
2023/03/22 11:35:37;;;;;;;4.45;2.72;;;9.40;69.90;;;;;;5019518;28;20018;-81
2023/03/22 11:38:04;;;;;;;4.93;3.78;;;9.30;70.60;;;;;;5031172;28;20103;-80
2023/03/22 11:40:33;;;;;;;6.30;3.78;;;9.20;71.10;;;;;;5016547;28;20041;-80
2023/03/22 11:43:47;;;;;;;8.25;3.55;;;9.10;71.60;;;;;;5015985;28;20036;-81
2023/03/22 11:46:18;;;;;;;4.68;3.83;;;9.00;72.20;;;;;;4990016;28;20038;-82
2023/03/22 11:48:46;;;;;;;8.98;4.63;;;9.00;72.80;;;;;;5014861;28;20101;-82
2023/03/22 11:51:15;;;;;;;10.73;3.35;;;8.90;73.50;;;;;;5018990;28;20033;-82
2023/03/22 11:53:45;;;;;;;5.43;3.65;;;8.70;74.40;;;;;;5004228;28;20026;-81
2023/03/22 11:56:16;;;;;;;6.20;3.50;;;8.50;75.10;;;;;;5018320;28;20491;-82
2023/03/22 11:58:41;;;;;;;4.90;3.13;;;8.40;75.90;;;;;;5015568;28;20041;-82
2023/03/22 12:01:16;;;;;;;4.93;3.33;;;8.30;76.70;;;;;;5016220;28;20083;-80
2023/03/22 12:03:45;;;;;;;6.20;3.33;;;8.10;77.70;;;;;;5016738;28;20065;-81
2023/03/22 12:06:30;;;;;;;6.38;3.42;;;8.10;78.20;;;;;;4998822;28;20030;-82
2023/03/22 12:09:26;;;;;;;4.38;3.45;;;8.20;78.20;;;;;;5024479;28;20109;-82
2023/03/22 12:11:56;;;;;;;3.15;2.63;;;8.40;78.20;;;;;;5014604;28;20410;-81
2023/03/22 12:14:27;;;;;;;4.13;3.47;;;8.50;77.80;;;;;;5018046;28;20025;-83
2023/03/22 12:17:27;;;;;;;4.13;3.00;;;8.60;77.30;;;;;;5020044;28;20018;-82
2023/03/22 12:20:31;;;;;;;7.75;3.08;;;8.70;77.20;;;;;;5019556;28;20037;-84
2023/03/22 12:22:57;;;;;;;5.50;2.78;;;8.90;77.10;;;;;;5020326;28;20030;-82
2023/03/22 12:25:33;;;;;;;5.53;2.90;;;9.10;76.10;;;;;;5014963;28;20026;-81
2023/03/22 12:28:08;;;;;;;4.40;2.30;;;9.20;75.70;;;;;;5015313;28;20463;-82
2023/03/22 12:30:50;;;;;;;4.13;3.08;;;9.20;75.40;;;;;;5030178;28;20091;-83
2023/03/22 12:33:25;;;;;;;4.35;2.63;;;9.40;75.20;;;;;;5011629;28;21714;-81
2023/03/22 12:35:55;;;;;;;7.68;2.70;;;9.40;74.50;;;;;;5008369;28;20061;-83
2023/03/22 12:38:41;;;;;;;4.25;2.83;;;9.50;74.70;;;;;;4999302;28;20046;-81
2023/03/22 12:41:15;;;;;;;3.08;2.72;;;9.50;74.40;;;;;;5029713;28;20034;-84
2023/03/22 12:44:10;;;;;;;4.22;2.60;;;9.50;74.60;;;;;;5030651;28;20080;-81
2023/03/22 12:46:47;;;;;;;3.92;2.88;;;9.50;74.40;;;;;;4999018;28;20033;-81
2023/03/22 12:49:20;;;;;;;4.47;3.00;;;9.50;74.90;;;;;;5015601;28;20030;-80
2023/03/22 12:51:47;;;;;;;6.88;3.38;;;9.40;75.00;;;;;;5013436;28;20302;-83
2023/03/22 12:54:16;;;;;;;4.55;3.28;;;9.20;75.40;;;;;;5014284;28;20030;-82
2023/03/22 12:56:45;;;;;;;7.45;4.40;;;9.20;76.00;;;;;;5013826;28;20389;-82
2023/03/22 12:59:21;;;;;;;5.65;4.07;;;9.10;76.20;;;;;;5014208;28;20472;-84
2023/03/22 13:01:55;;;;;;;4.70;3.05;;;9.00;76.70;;;;;;5013949;28;20025;-84
2023/03/22 13:04:36;;;;;;;6.22;3.42;;;8.80;76.90;;;;;;5014178;28;20034;-82
2023/03/22 13:07:19;;;;;;;5.35;3.35;;;8.70;77.40;;;;;;5012932;28;20033;-83
2023/03/22 13:09:49;;;;;;;3.47;2.55;;;8.50;77.90;;;;;;5013380;28;20515;-82
2023/03/22 13:12:15;;;;;;;2.85;2.38;;;8.50;78.50;;;;;;5014149;28;20052;-83
2023/03/22 13:14:50;;;;;;;6.68;4.25;;;8.40;78.80;;;;;;5014765;28;20034;-81